Time;durP1;ratioP1;P1;durP2;ratioP2;P2;SDS_P1;SDS_P2;PMS_P1;PMS_P2;Temp;Humidity;BMP_temperature;BMP_pressure;BME280_temperature;BME280_humidity;BME280_pressure;Samples;Min_cycle;Max_cycle;Signal;HPM_P1;HPM_P2
2023/05/17 00:01:50;;;;;;;0.67;0.50;;;;;;;;;;5060767;27;94096;-59
2023/05/17 00:04:18;;;;;;;0.63;0.60;;;;;;;;;;5060575;27;92889;-60
2023/05/17 00:06:47;;;;;;;1.00;0.50;;;;;;;;;;5060791;27;92024;-61
2023/05/17 00:09:15;;;;;;;2.30;1.00;;;;;;;;;;5060714;27;91332;-60
2023/05/17 00:11:45;;;;;;;0.87;0.70;;;;;;;;;;5060611;27;94150;-60
2023/05/17 00:14:13;;;;;;;0.50;0.50;;;;;;;;;;5060557;27;94122;-60
2023/05/17 00:16:42;;;;;;;0.83;0.43;;;;;;;;;;5060345;27;92928;-60
2023/05/17 00:19:10;;;;;;;0.50;0.50;;;;;;;;;;5060583;27;92026;-60
2023/05/17 00:21:39;;;;;;;0.70;0.70;;;;;;;;;;5059916;27;94200;-60
2023/05/17 00:24:08;;;;;;;0.97;0.63;;;;;;;;;;5060360;27;92794;-60
2023/05/17 00:26:36;;;;;;;0.60;0.60;;;;;;;;;;5060871;27;92028;-60
2023/05/17 00:29:06;;;;;;;0.80;0.70;;;;;;;;;;5040423;28;92022;-60
2023/05/17 00:31:34;;;;;;;0.40;0.40;;;;;;;;;;5039650;27;94411;-60
2023/05/17 00:34:02;;;;;;;0.40;0.40;;;;;;;;;;5059266;27;92796;-60
2023/05/17 00:36:31;;;;;;;0.40;0.40;;;;;;;;;;5060675;27;92062;-60
2023/05/17 00:38:59;;;;;;;1.50;0.73;;;;;;;;;;5059929;27;92752;-60
2023/05/17 00:41:28;;;;;;;2.13;0.73;;;;;;;;;;5059375;27;94394;-60
2023/05/17 00:43:56;;;;;;;0.60;0.50;;;;;;;;;;5059558;27;94908;-61
2023/05/17 00:46:26;;;;;;;0.73;0.70;;;;;;;;;;5060570;27;93136;-60
2023/05/17 00:48:54;;;;;;;0.70;0.60;;;;;;;;;;5059694;27;92066;-60
2023/05/17 00:51:23;;;;;;;0.60;0.60;;;;;;;;;;5059958;27;94155;-60
2023/05/17 00:53:51;;;;;;;1.73;0.60;;;;;;;;;;5059185;27;93884;-60
2023/05/17 00:56:19;;;;;;;1.37;0.60;;;;;;;;;;5060329;27;92027;-60
2023/05/17 00:58:48;;;;;;;0.43;0.43;;;;;;;;;;5060561;27;92465;-60
2023/05/17 01:01:16;;;;;;;1.27;0.90;;;;;;;;;;5059974;27;93173;-60
2023/05/17 01:03:46;;;;;;;0.30;0.30;;;;;;;;;;5059351;27;94141;-60
2023/05/17 01:06:14;;;;;;;1.70;0.53;;;;;;;;;;5060074;27;92841;-60
2023/05/17 01:08:43;;;;;;;2.43;0.50;;;;;;;;;;5060002;27;92030;-60
2023/05/17 01:11:13;;;;;;;1.80;0.57;;;;;;;;;;5059387;27;94279;-60
2023/05/17 01:13:42;;;;;;;1.40;0.60;;;;;;;;;;5058565;27;94023;-60
2023/05/17 01:16:11;;;;;;;0.40;0.40;;;;;;;;;;5060209;27;93743;-60
2023/05/17 01:18:40;;;;;;;1.37;0.60;;;;;;;;;;5058826;27;92250;-60
2023/05/17 01:21:13;;;;;;;1.43;0.50;;;;;;;;;;5059647;27;93000;-60
2023/05/17 01:23:42;;;;;;;1.00;0.47;;;;;;;;;;5059566;27;94356;-60
2023/05/17 01:26:11;;;;;;;0.83;0.50;;;;;;;;;;5060003;27;92111;-60
2023/05/17 01:28:41;;;;;;;0.53;0.50;;;;;;;;;;5060012;27;92003;-60
2023/05/17 01:31:09;;;;;;;0.53;0.50;;;;;;;;;;5058872;27;94178;-59
2023/05/17 01:33:38;;;;;;;2.03;0.70;;;;;;;;;;5058795;27;94816;-60
2023/05/17 01:36:07;;;;;;;0.57;0.50;;;;;;;;;;5058732;27;92077;-59
2023/05/17 01:38:35;;;;;;;0.50;0.50;;;;;;;;;;5056805;27;92205;-60
2023/05/17 01:41:06;;;;;;;2.47;0.70;;;;;;;;;;5057501;27;94275;-60
2023/05/17 01:43:36;;;;;;;0.93;0.77;;;;;;;;;;5064821;27;93821;-60
2023/05/17 01:46:08;;;;;;;0.40;0.40;;;;;;;;;;5065616;27;92228;-60
2023/05/17 01:48:37;;;;;;;2.10;0.70;;;;;;;;;;5065372;27;91162;-60
2023/05/17 01:51:05;;;;;;;1.83;0.70;;;;;;;;;;5065368;27;93153;-60
2023/05/17 01:53:36;;;;;;;0.73;0.60;;;;;;;;;;5065741;27;92832;-60
2023/05/17 01:56:05;;;;;;;0.50;0.50;;;;;;;;;;5066140;27;93020;-60
2023/05/17 01:58:35;;;;;;;2.33;0.60;;;;;;;;;;5066201;27;91999;-60
2023/05/17 02:01:04;;;;;;;1.30;0.70;;;;;;;;;;5065295;27;94438;-59
2023/05/17 02:03:33;;;;;;;0.50;0.50;;;;;;;;;;5064864;27;94024;-59
2023/05/17 02:06:02;;;;;;;0.63;0.60;;;;;;;;;;5066271;27;92084;-60
2023/05/17 02:08:30;;;;;;;0.63;0.63;;;;;;;;;;5065746;27;92115;-59
2023/05/17 02:10:59;;;;;;;1.70;0.50;;;;;;;;;;5065356;27;94167;-59
2023/05/17 02:13:27;;;;;;;0.87;0.60;;;;;;;;;;5065614;27;93802;-60
2023/05/17 02:15:55;;;;;;;0.60;0.50;;;;;;;;;;5066155;27;92012;-60
2023/05/17 02:18:25;;;;;;;2.07;0.60;;;;;;;;;;5065747;27;91978;-60
2023/05/17 02:20:55;;;;;;;0.50;0.50;;;;;;;;;;5065266;27;94087;-60
2023/05/17 02:23:24;;;;;;;0.40;0.40;;;;;;;;;;5065161;27;94940;-60
2023/05/17 02:25:52;;;;;;;0.30;0.30;;;;;;;;;;5065897;27;92015;-59
2023/05/17 02:28:21;;;;;;;0.73;0.70;;;;;;;;;;5065805;27;92091;-59
2023/05/17 02:30:49;;;;;;;0.53;0.50;;;;;;;;;;5065501;27;94293;-60
2023/05/17 02:33:17;;;;;;;1.43;0.53;;;;;;;;;;5065178;27;94074;-59
2023/05/17 02:35:46;;;;;;;2.93;0.60;;;;;;;;;;5066001;27;91900;-60
2023/05/17 02:38:16;;;;;;;1.53;0.70;;;;;;;;;;5065916;27;92202;-60
2023/05/17 02:40:44;;;;;;;0.60;0.60;;;;;;;;;;5065618;27;94166;-59
2023/05/17 02:43:12;;;;;;;3.03;1.07;;;;;;;;;;5064867;27;94020;-60
2023/05/17 02:45:41;;;;;;;0.50;0.50;;;;;;;;;;5065199;27;93011;-60
2023/05/17 02:48:10;;;;;;;1.23;0.50;;;;;;;;;;5064761;27;92859;-60
2023/05/17 02:50:39;;;;;;;0.83;0.70;;;;;;;;;;5064991;27;94274;-59
2023/05/17 02:53:07;;;;;;;2.73;0.77;;;;;;;;;;5062404;27;93851;-60
2023/05/17 02:55:37;;;;;;;1.50;0.70;;;;;;;;;;5061996;27;91859;-60
2023/05/17 02:58:05;;;;;;;1.37;0.60;;;;;;;;;;5062385;27;92137;-60
2023/05/17 03:00:33;;;;;;;1.70;0.77;;;;;;;;;;5061467;27;94151;-62
2023/05/17 03:03:02;;;;;;;2.30;0.70;;;;;;;;;;5061937;27;93916;-61
2023/05/17 03:05:30;;;;;;;1.30;0.60;;;;;;;;;;5062464;27;92044;-60
2023/05/17 03:07:59;;;;;;;2.00;0.70;;;;;;;;;;5061914;27;92043;-60
2023/05/17 03:10:27;;;;;;;0.53;0.53;;;;;;;;;;5040844;28;95253;-60
2023/05/17 03:12:57;;;;;;;0.63;0.40;;;;;;;;;;5047811;27;94802;-60
2023/05/17 03:15:28;;;;;;;1.30;0.77;;;;;;;;;;5061891;27;92147;-60
2023/05/17 03:17:57;;;;;;;0.43;0.40;;;;;;;;;;5061194;27;92046;-60
2023/05/17 03:20:25;;;;;;;5.50;1.03;;;;;;;;;;5054769;27;93996;-60
2023/05/17 03:22:54;;;;;;;0.63;0.60;;;;;;;;;;5057202;27;93011;-60
2023/05/17 03:25:22;;;;;;;1.43;0.60;;;;;;;;;;5061449;27;92052;-60
2023/05/17 03:27:50;;;;;;;0.60;0.57;;;;;;;;;;5062062;27;91455;-60
2023/05/17 03:30:20;;;;;;;2.50;1.03;;;;;;;;;;5061091;27;93158;-60
2023/05/17 03:32:48;;;;;;;2.40;0.40;;;;;;;;;;5060544;27;93423;-60
2023/05/17 03:35:17;;;;;;;0.70;0.60;;;;;;;;;;5056169;27;93001;-60
2023/05/17 03:37:48;;;;;;;1.30;0.70;;;;;;;;;;5061450;27;92056;-60
2023/05/17 03:40:16;;;;;;;2.37;0.90;;;;;;;;;;5060764;27;93287;-60
2023/05/17 03:42:44;;;;;;;0.83;0.83;;;;;;;;;;5061097;27;93890;-60
2023/05/17 03:45:13;;;;;;;0.83;0.50;;;;;;;;;;5061025;27;92130;-60
2023/05/17 03:47:43;;;;;;;2.50;0.83;;;;;;;;;;5061413;27;92152;-60
2023/05/17 03:50:13;;;;;;;0.60;0.50;;;;;;;;;;5060450;27;93122;-60
2023/05/17 03:52:41;;;;;;;0.50;0.40;;;;;;;;;;5061117;27;93944;-60
2023/05/17 03:55:10;;;;;;;0.30;0.30;;;;;;;;;;5061226;27;92058;-60
2023/05/17 03:57:38;;;;;;;0.73;0.63;;;;;;;;;;5061110;27;93091;-60
2023/05/17 04:00:09;;;;;;;0.70;0.70;;;;;;;;;;5059625;27;94224;-59
2023/05/17 04:02:37;;;;;;;0.77;0.50;;;;;;;;;;5061297;27;94754;-61
2023/05/17 04:05:07;;;;;;;4.73;0.80;;;;;;;;;;5060852;27;91938;-59
2023/05/17 04:07:36;;;;;;;0.70;0.70;;;;;;;;;;5060887;27;92707;-62
2023/05/17 04:10:04;;;;;;;1.50;0.70;;;;;;;;;;5060641;27;94417;-61
2023/05/17 04:12:33;;;;;;;1.70;1.10;;;;;;;;;;5060463;27;92773;-60
2023/05/17 04:15:02;;;;;;;0.70;0.70;;;;;;;;;;5060198;27;92155;-60
2023/05/17 04:17:30;;;;;;;0.67;0.50;;;;;;;;;;5061265;27;91220;-62
2023/05/17 04:19:59;;;;;;;0.67;0.60;;;;;;;;;;5059804;27;94147;-59
2023/05/17 04:22:29;;;;;;;1.03;0.67;;;;;;;;;;5060858;27;92507;-60
2023/05/17 04:24:57;;;;;;;1.23;0.67;;;;;;;;;;5060316;27;93024;-60
2023/05/17 04:27:25;;;;;;;0.60;0.60;;;;;;;;;;5061073;27;91986;-60
2023/05/17 04:29:54;;;;;;;1.07;0.70;;;;;;;;;;5059396;27;94249;-60
2023/05/17 04:32:22;;;;;;;1.03;0.67;;;;;;;;;;5059444;27;93924;-60
2023/05/17 04:34:51;;;;;;;0.40;0.40;;;;;;;;;;5060416;27;92079;-59
2023/05/17 04:37:20;;;;;;;1.87;0.47;;;;;;;;;;5060156;27;92019;-59
2023/05/17 04:39:50;;;;;;;0.67;0.63;;;;;;;;;;5059619;27;94426;-59
2023/05/17 04:42:18;;;;;;;1.07;0.90;;;;;;;;;;5060681;27;93984;-57
2023/05/17 04:44:46;;;;;;;0.80;0.80;;;;;;;;;;5058079;27;92047;-54
2023/05/17 04:47:15;;;;;;;1.90;0.50;;;;;;;;;;5049795;27;92139;-53
2023/05/17 04:49:43;;;;;;;1.27;0.63;;;;;;;;;;5047915;27;95355;-56
2023/05/17 04:52:11;;;;;;;9.20;0.77;;;;;;;;;;5059897;27;93964;-55
2023/05/17 04:54:40;;;;;;;0.60;0.60;;;;;;;;;;5060460;27;92094;-55
2023/05/17 04:57:10;;;;;;;1.10;0.73;;;;;;;;;;5059565;27;92058;-55
2023/05/17 04:59:38;;;;;;;0.53;0.53;;;;;;;;;;5059361;27;94377;-55
2023/05/17 05:02:06;;;;;;;1.93;0.60;;;;;;;;;;5053463;27;93963;-54
2023/05/17 05:04:35;;;;;;;1.50;0.50;;;;;;;;;;5045139;27;92090;-54
2023/05/17 05:07:03;;;;;;;1.97;0.70;;;;;;;;;;5059775;27;91413;-54
2023/05/17 05:09:32;;;;;;;3.93;0.73;;;;;;;;;;5059220;27;94281;-54
2023/05/17 05:12:00;;;;;;;2.30;0.97;;;;;;;;;;5059256;27;92962;-55
2023/05/17 05:14:30;;;;;;;0.60;0.60;;;;;;;;;;5058692;27;92981;-54
2023/05/17 05:16:58;;;;;;;0.60;0.60;;;;;;;;;;5058330;27;92244;-55
2023/05/17 05:19:27;;;;;;;2.97;0.90;;;;;;;;;;5058682;27;93263;-56
2023/05/17 05:21:55;;;;;;;1.10;0.50;;;;;;;;;;5059519;27;92825;-55
2023/05/17 05:24:23;;;;;;;2.07;0.87;;;;;;;;;;5056045;27;92152;-55
2023/05/17 05:26:52;;;;;;;0.83;0.60;;;;;;;;;;5058543;27;92043;-55
2023/05/17 05:29:20;;;;;;;1.03;0.50;;;;;;;;;;5059145;27;94353;-55
2023/05/17 05:31:50;;;;;;;1.20;0.80;;;;;;;;;;5059459;27;93986;-55
2023/05/17 05:34:18;;;;;;;1.47;0.50;;;;;;;;;;5059581;27;92206;-55
2023/05/17 05:36:46;;;;;;;3.50;0.70;;;;;;;;;;5059288;27;92037;-55
2023/05/17 05:39:15;;;;;;;2.90;0.60;;;;;;;;;;5058961;27;95197;-55
2023/05/17 05:41:44;;;;;;;1.20;0.77;;;;;;;;;;5059103;27;94851;-55
2023/05/17 05:44:13;;;;;;;5.03;0.70;;;;;;;;;;5059585;27;92053;-54
2023/05/17 05:46:41;;;;;;;1.80;0.63;;;;;;;;;;5058652;27;92135;-54
2023/05/17 05:49:11;;;;;;;2.73;0.80;;;;;;;;;;5058843;27;94110;-55
2023/05/17 05:51:39;;;;;;;2.33;0.70;;;;;;;;;;5058394;27;94258;-54
2023/05/17 05:54:07;;;;;;;2.30;0.93;;;;;;;;;;5056412;27;92054;-55
2023/05/17 05:56:36;;;;;;;1.30;0.63;;;;;;;;;;5058834;27;91308;-55
2023/05/17 05:59:04;;;;;;;8.23;0.80;;;;;;;;;;5058258;27;94228;-55
2023/05/17 06:01:33;;;;;;;1.93;0.73;;;;;;;;;;5058019;27;93890;-55
2023/05/17 06:04:01;;;;;;;0.97;0.60;;;;;;;;;;5058433;27;93368;-54
2023/05/17 06:06:31;;;;;;;5.10;0.97;;;;;;;;;;5057390;27;92111;-55
2023/05/17 06:08:59;;;;;;;1.97;1.00;;;;;;;;;;5058439;27;93735;-55
2023/05/17 06:11:28;;;;;;;0.93;0.47;;;;;;;;;;5058633;27;92448;-55
2023/05/17 06:13:56;;;;;;;2.33;0.43;;;;;;;;;;5059228;27;92005;-55
2023/05/17 06:16:24;;;;;;;0.53;0.50;;;;;;;;;;5058354;27;91984;-55
2023/05/17 06:18:53;;;;;;;1.53;0.77;;;;;;;;;;5057715;27;93112;-54
2023/05/17 06:21:21;;;;;;;3.33;0.87;;;;;;;;;;5058327;27;93955;-57
2023/05/17 06:23:51;;;;;;;2.13;0.87;;;;;;;;;;5058231;27;91994;-54
2023/05/17 06:26:19;;;;;;;0.73;0.50;;;;;;;;;;5058720;27;92087;-53
2023/05/17 06:28:48;;;;;;;1.90;0.70;;;;;;;;;;5055681;27;94226;-54
2023/05/17 06:31:16;;;;;;;2.00;0.60;;;;;;;;;;5057687;27;94866;-54
2023/05/17 06:33:47;;;;;;;1.00;0.57;;;;;;;;;;5061729;27;92098;-53
2023/05/17 06:36:15;;;;;;;2.37;1.00;;;;;;;;;;5061938;27;92055;-54
2023/05/17 06:38:44;;;;;;;4.20;1.10;;;;;;;;;;5061490;27;94169;-53
2023/05/17 06:41:14;;;;;;;0.40;0.40;;;;;;;;;;5057787;27;92631;-53
2023/05/17 06:43:42;;;;;;;0.70;0.53;;;;;;;;;;5061741;27;92066;-54
2023/05/17 06:46:10;;;;;;;0.43;0.43;;;;;;;;;;5062182;27;91361;-53
2023/05/17 06:48:39;;;;;;;2.00;0.60;;;;;;;;;;5060484;27;94104;-53
2023/05/17 06:51:08;;;;;;;8.13;0.83;;;;;;;;;;5061281;27;92074;-53
2023/05/17 06:53:36;;;;;;;2.30;0.60;;;;;;;;;;5060691;27;93051;-54
2023/05/17 06:56:05;;;;;;;1.53;0.57;;;;;;;;;;5062019;27;92538;-54
2023/05/17 06:58:35;;;;;;;3.10;0.60;;;;;;;;;;5061438;27;93249;-53
2023/05/17 07:01:04;;;;;;;0.60;0.60;;;;;;;;;;5057068;27;93063;-54
2023/05/17 07:03:33;;;;;;;2.17;0.83;;;;;;;;;;5061261;27;92301;-54
2023/05/17 07:06:02;;;;;;;4.57;0.90;;;;;;;;;;5061627;27;92075;-54
2023/05/17 07:08:30;;;;;;;0.40;0.40;;;;;;;;;;5061071;27;93185;-54
2023/05/17 07:10:58;;;;;;;0.77;0.50;;;;;;;;;;5059995;27;92960;-54
2023/05/17 07:13:27;;;;;;;1.10;0.80;;;;;;;;;;5058903;27;92107;-59
2023/05/17 07:15:56;;;;;;;1.37;0.60;;;;;;;;;;5061684;27;92411;-59
2023/05/17 07:18:25;;;;;;;1.10;0.50;;;;;;;;;;5060034;27;95634;-59
2023/05/17 07:20:54;;;;;;;1.87;0.60;;;;;;;;;;5058825;27;94796;-59
2023/05/17 07:23:22;;;;;;;3.33;0.97;;;;;;;;;;5057719;27;92182;-55
2023/05/17 07:25:51;;;;;;;3.23;0.77;;;;;;;;;;5061070;27;92232;-55
2023/05/17 07:28:19;;;;;;;2.63;0.60;;;;;;;;;;5061331;27;94174;-55
2023/05/17 07:30:48;;;;;;;1.67;0.83;;;;;;;;;;5060740;27;93871;-55
2023/05/17 07:33:17;;;;;;;2.00;0.87;;;;;;;;;;5061338;27;93512;-57
2023/05/17 07:35:46;;;;;;;4.23;0.80;;;;;;;;;;5061729;27;91336;-55
2023/05/17 07:38:14;;;;;;;2.07;0.57;;;;;;;;;;5059701;27;94289;-55
2023/05/17 07:40:42;;;;;;;1.97;0.40;;;;;;;;;;5059682;27;92114;-55
2023/05/17 07:43:11;;;;;;;0.40;0.40;;;;;;;;;;5059153;27;93027;-59
2023/05/17 07:45:39;;;;;;;2.00;0.40;;;;;;;;;;5059128;27;92373;-56
2023/05/17 07:48:10;;;;;;;0.73;0.47;;;;;;;;;;5059272;27;94154;-56
2023/05/17 07:50:42;;;;;;;4.80;0.57;;;;;;;;;;5058289;27;93925;-58
2023/05/17 07:53:13;;;;;;;0.30;0.30;;;;;;;;;;5057593;27;92609;-56
2023/05/17 07:55:41;;;;;;;1.20;0.70;;;;;;;;;;5059209;27;92043;-56
2023/05/17 07:58:11;;;;;;;2.73;0.63;;;;;;;;;;5057468;27;93129;-57
2023/05/17 08:00:39;;;;;;;1.30;0.57;;;;;;;;;;5056977;27;93103;-56
2023/05/17 08:03:08;;;;;;;2.77;0.70;;;;;;;;;;5059359;27;92165;-58
2023/05/17 08:05:36;;;;;;;6.97;0.90;;;;;;;;;;5055119;27;93075;-58
2023/05/17 08:08:06;;;;;;;1.47;0.30;;;;;;;;;;5059736;27;93866;-57
2023/05/17 08:10:36;;;;;;;0.83;0.50;;;;;;;;;;5060823;27;94860;-57
2023/05/17 08:13:06;;;;;;;1.13;0.40;;;;;;;;;;5060829;27;91952;-57
2023/05/17 08:15:34;;;;;;;3.17;0.77;;;;;;;;;;5059956;27;91981;-57
2023/05/17 08:18:02;;;;;;;2.73;0.40;;;;;;;;;;5055373;27;93765;-57
2023/05/17 08:20:32;;;;;;;2.80;0.73;;;;;;;;;;5060394;27;92538;-57
2023/05/17 08:23:00;;;;;;;1.70;0.40;;;;;;;;;;5071744;27;92176;-58
2023/05/17 08:25:30;;;;;;;1.23;0.83;;;;;;;;;;5061086;27;91400;-57
2023/05/17 08:27:59;;;;;;;1.20;0.40;;;;;;;;;;5055858;27;92900;-57
2023/05/17 08:30:27;;;;;;;0.70;0.47;;;;;;;;;;5060427;27;92841;-57
2023/05/17 08:32:56;;;;;;;0.80;0.40;;;;;;;;;;5058439;27;93293;-57
2023/05/17 08:35:26;;;;;;;0.30;0.30;;;;;;;;;;5060076;27;91980;-57
2023/05/17 08:37:56;;;;;;;1.23;0.37;;;;;;;;;;5059721;27;94173;-57
2023/05/17 08:40:24;;;;;;;0.57;0.47;;;;;;;;;;5059330;27;93488;-58
2023/05/17 08:42:54;;;;;;;4.33;1.47;;;;;;;;;;5056611;27;92011;-57
2023/05/17 08:45:22;;;;;;;4.10;0.30;;;;;;;;;;5059818;27;91981;-58
2023/05/17 08:47:53;;;;;;;2.30;0.60;;;;;;;;;;5059643;27;94244;-57
2023/05/17 08:50:22;;;;;;;0.87;0.63;;;;;;;;;;5058519;27;93632;-57
2023/05/17 08:52:51;;;;;;;0.97;0.50;;;;;;;;;;5058692;27;92125;-57
2023/05/17 08:55:19;;;;;;;3.00;0.40;;;;;;;;;;5060406;27;92093;-58
2023/05/17 08:57:48;;;;;;;1.20;0.33;;;;;;;;;;5059190;27;95088;-57
2023/05/17 09:00:19;;;;;;;0.63;0.40;;;;;;;;;;5058846;27;94727;-57
2023/05/17 09:02:48;;;;;;;1.23;0.40;;;;;;;;;;5059512;27;92051;-58
2023/05/17 09:05:16;;;;;;;0.80;0.30;;;;;;;;;;5060131;27;91962;-55
2023/05/17 09:07:45;;;;;;;0.63;0.30;;;;;;;;;;5058797;27;94049;-57
2023/05/17 09:10:13;;;;;;;2.27;0.53;;;;;;;;;;5059486;27;93959;-57
2023/05/17 09:12:42;;;;;;;0.30;0.30;;;;;;;;;;5060041;27;91868;-56
2023/05/17 09:15:14;;;;;;;2.73;0.47;;;;;;;;;;5060256;27;91398;-57
2023/05/17 09:17:44;;;;;;;0.60;0.53;;;;;;;;;;5059138;27;92059;-57
2023/05/17 09:20:13;;;;;;;3.33;0.40;;;;;;;;;;5059395;27;93803;-56
2023/05/17 09:22:43;;;;;;;1.13;0.47;;;;;;;;;;5059548;27;92911;-56
2023/05/17 09:25:11;;;;;;;0.40;0.40;;;;;;;;;;5059980;27;92008;-57
2023/05/17 09:27:40;;;;;;;0.77;0.40;;;;;;;;;;5060781;27;94122;-57
2023/05/17 09:30:11;;;;;;;0.23;0.23;;;;;;;;;;5060874;27;93104;-56
2023/05/17 09:32:45;;;;;;;2.43;1.20;;;;;;;;;;5059140;27;92061;-56
2023/05/17 09:35:14;;;;;;;1.10;0.40;;;;;;;;;;5059308;27;92031;-56
2023/05/17 09:37:45;;;;;;;0.30;0.30;;;;;;;;;;5059267;27;94152;-56
2023/05/17 09:40:22;;;;;;;0.20;0.20;;;;;;;;;;5059483;27;92831;-56
2023/05/17 09:42:50;;;;;;;0.20;0.20;;;;;;;;;;5059630;27;92024;-56
2023/05/17 09:45:22;;;;;;;3.53;0.40;;;;;;;;;;5059112;27;92086;-56
2023/05/17 09:47:52;;;;;;;1.27;0.57;;;;;;;;;;5057841;27;94097;-56
2023/05/17 09:50:21;;;;;;;1.33;0.40;;;;;;;;;;5058412;27;94869;-57
2023/05/17 09:52:53;;;;;;;0.90;0.33;;;;;;;;;;5059767;27;91967;-56
2023/05/17 09:55:26;;;;;;;0.47;0.20;;;;;;;;;;5059493;27;92033;-56
2023/05/17 09:57:55;;;;;;;3.80;0.50;;;;;;;;;;5058804;27;94109;-56
2023/05/17 10:00:23;;;;;;;1.17;0.50;;;;;;;;;;5058696;27;92911;-56
2023/05/17 10:02:53;;;;;;;1.17;0.30;;;;;;;;;;5060031;27;92186;-56
2023/05/17 10:05:22;;;;;;;0.97;0.30;;;;;;;;;;5063445;27;91371;-56
2023/05/17 10:07:51;;;;;;;0.60;0.40;;;;;;;;;;5062902;27;94276;-56
2023/05/17 10:10:20;;;;;;;2.33;0.60;;;;;;;;;;5062706;27;94074;-56
2023/05/17 10:12:49;;;;;;;0.63;0.30;;;;;;;;;;5062717;27;93059;-56
2023/05/17 10:15:17;;;;;;;0.30;0.30;;;;;;;;;;5062995;27;92028;-56
2023/05/17 10:17:46;;;;;;;0.73;0.40;;;;;;;;;;5062723;27;94303;-56
2023/05/17 10:20:16;;;;;;;1.30;0.70;;;;;;;;;;5062197;27;94071;-56
2023/05/17 10:22:45;;;;;;;0.83;0.50;;;;;;;;;;5062815;27;92083;-56
2023/05/17 10:25:13;;;;;;;0.73;0.50;;;;;;;;;;5062553;27;93059;-57
2023/05/17 10:27:41;;;;;;;0.90;0.30;;;;;;;;;;5062369;27;93106;-56
2023/05/17 10:30:10;;;;;;;0.50;0.50;;;;;;;;;;5062680;27;92932;-57
2023/05/17 10:32:38;;;;;;;1.00;0.67;;;;;;;;;;5061396;27;92388;-57
2023/05/17 10:35:08;;;;;;;0.40;0.40;;;;;;;;;;5060922;27;92030;-58
2023/05/17 10:37:41;;;;;;;0.47;0.33;;;;;;;;;;5061256;27;95039;-57
2023/05/17 10:40:12;;;;;;;0.67;0.20;;;;;;;;;;5061160;27;94911;-56
2023/05/17 10:42:40;;;;;;;0.30;0.30;;;;;;;;;;5061640;27;92336;-56
2023/05/17 10:45:09;;;;;;;0.30;0.30;;;;;;;;;;5062064;27;91985;-56
2023/05/17 10:47:41;;;;;;;1.40;0.33;;;;;;;;;;5061949;27;94205;-56
2023/05/17 10:50:13;;;;;;;1.43;0.37;;;;;;;;;;5061519;27;93953;-55
2023/05/17 10:52:47;;;;;;;2.70;2.00;;;;;;;;;;5062048;27;92041;-55
2023/05/17 10:55:18;;;;;;;3.40;2.67;;;;;;;;;;5062203;27;91376;-55
2023/05/17 10:57:47;;;;;;;3.23;2.47;;;;;;;;;;5062252;27;94236;-57
2023/05/17 11:00:20;;;;;;;3.27;2.40;;;;;;;;;;5061663;27;94097;-57
2023/05/17 11:02:49;;;;;;;3.70;2.30;;;;;;;;;;5062053;27;92870;-57
2023/05/17 11:05:23;;;;;;;7.03;2.67;;;;;;;;;;5062102;27;92032;-58
2023/05/17 11:07:53;;;;;;;2.37;1.73;;;;;;;;;;5061528;27;93047;-59
2023/05/17 11:10:21;;;;;;;8.57;3.57;;;;;;;;;;5061413;27;94045;-60
2023/05/17 11:12:54;;;;;;;45.77;18.13;;;;;;;;;;5062269;27;92115;-59
2023/05/17 11:15:23;;;;;;;59.53;24.67;;;;;;;;;;5060280;27;92023;-59
2023/05/17 11:17:54;;;;;;;46.57;17.20;;;;;;;;;;5060379;27;94482;-60
2023/05/17 11:20:33;;;;;;;30.07;13.03;;;;;;;;;;5061285;27;93652;-60
2023/05/17 11:23:06;;;;;;;25.73;12.90;;;;;;;;;;5061066;27;92241;-59
2023/05/17 11:25:35;;;;;;;29.30;12.17;;;;;;;;;;5061035;27;92033;-60
2023/05/17 11:28:07;;;;;;;26.77;9.80;;;;;;;;;;5059927;27;94984;-59
2023/05/17 11:30:36;;;;;;;28.43;11.20;;;;;;;;;;5060975;27;95133;-60
2023/05/17 11:33:05;;;;;;;22.60;9.90;;;;;;;;;;5060892;27;92074;-59
2023/05/17 11:35:44;;;;;;;24.20;8.97;;;;;;;;;;5061539;27;91923;-60
2023/05/17 11:38:14;;;;;;;21.87;8.27;;;;;;;;;;5061283;27;94135;-60
2023/05/17 11:40:42;;;;;;;18.57;9.70;;;;;;;;;;5060843;27;94100;-59
2023/05/17 11:43:14;;;;;;;18.87;9.23;;;;;;;;;;5061556;27;91931;-60
2023/05/17 11:45:44;;;;;;;11.57;7.00;;;;;;;;;;5061423;27;91347;-60
2023/05/17 11:48:12;;;;;;;14.10;9.50;;;;;;;;;;5060838;27;94133;-60
2023/05/17 11:50:41;;;;;;;18.53;7.50;;;;;;;;;;5060956;27;92919;-60
2023/05/17 11:53:10;;;;;;;18.97;8.30;;;;;;;;;;5060826;27;92708;-59
2023/05/17 11:55:40;;;;;;;19.27;8.10;;;;;;;;;;5061563;27;92091;-59
2023/05/17 11:58:09;;;;;;;18.77;6.60;;;;;;;;;;5061010;27;94172;-60
2023/05/17 12:00:39;;;;;;;9.40;5.80;;;;;;;;;;5060946;27;93948;-57
2023/05/17 12:03:17;;;;;;;12.10;5.37;;;;;;;;;;5049634;27;93606;-59
2023/05/17 12:05:47;;;;;;;12.80;5.67;;;;;;;;;;5041264;27;92095;-60
2023/05/17 12:08:16;;;;;;;16.07;6.50;;;;;;;;;;5058461;27;94310;-60
2023/05/17 12:10:50;;;;;;;21.90;10.03;;;;;;;;;;5054771;27;93996;-61
2023/05/17 12:13:18;;;;;;;16.50;9.67;;;;;;;;;;5040973;27;92048;-62
2023/05/17 12:15:49;;;;;;;20.70;11.13;;;;;;;;;;5040188;27;92061;-60
2023/05/17 12:18:19;;;;;;;23.53;10.90;;;;;;;;;;5038906;27;95245;-61
2023/05/17 12:20:56;;;;;;;12.80;8.20;;;;;;;;;;5039627;27;95002;-61
2023/05/17 12:23:31;;;;;;;17.60;9.23;;;;;;;;;;5038777;27;92374;-61
2023/05/17 12:26:08;;;;;;;16.83;9.13;;;;;;;;;;5038681;27;92373;-61
2023/05/17 12:28:36;;;;;;;14.63;7.87;;;;;;;;;;5036664;27;94338;-61
2023/05/17 12:31:05;;;;;;;14.53;6.83;;;;;;;;;;5039647;27;94252;-61
2023/05/17 12:33:35;;;;;;;14.50;7.73;;;;;;;;;;5040206;28;92116;-61
2023/05/17 12:36:04;;;;;;;12.20;7.37;;;;;;;;;;5040191;27;91287;-61
2023/05/17 12:38:32;;;;;;;12.40;6.53;;;;;;;;;;5040258;28;93695;-61
2023/05/17 12:41:03;;;;;;;11.23;6.00;;;;;;;;;;5039845;27;93993;-61
2023/05/17 12:43:34;;;;;;;14.80;6.30;;;;;;;;;;5040187;28;92961;-61
2023/05/17 12:46:03;;;;;;;12.63;5.80;;;;;;;;;;5040373;27;92082;-61
2023/05/17 12:48:32;;;;;;;12.97;5.97;;;;;;;;;;5039536;27;93127;-61
2023/05/17 12:51:06;;;;;;;9.87;5.80;;;;;;;;;;5039285;27;94078;-61
2023/05/17 12:53:40;;;;;;;7.20;5.33;;;;;;;;;;5040061;27;92265;-61
2023/05/17 12:56:09;;;;;;;7.20;4.90;;;;;;;;;;5039854;27;91869;-61
2023/05/17 12:58:39;;;;;;;10.17;4.97;;;;;;;;;;5040038;27;93144;-61
2023/05/17 13:01:09;;;;;;;13.43;5.10;;;;;;;;;;5039984;27;93984;-61
2023/05/17 13:03:37;;;;;;;9.23;4.53;;;;;;;;;;5039965;27;92088;-61
2023/05/17 13:06:08;;;;;;;7.77;4.23;;;;;;;;;;5039878;28;91906;-61
2023/05/17 13:08:36;;;;;;;7.73;4.17;;;;;;;;;;5038523;27;95357;-61
2023/05/17 13:11:08;;;;;;;10.43;4.30;;;;;;;;;;5039499;27;94837;-62
2023/05/17 13:13:38;;;;;;;6.77;3.53;;;;;;;;;;5040127;27;92021;-61
2023/05/17 13:16:07;;;;;;;5.07;2.90;;;;;;;;;;5039988;27;92098;-61
2023/05/17 13:18:48;;;;;;;6.53;3.20;;;;;;;;;;5039273;27;94328;-61
2023/05/17 13:21:16;;;;;;;6.10;3.10;;;;;;;;;;5039330;27;93848;-61
2023/05/17 13:23:47;;;;;;;5.00;3.30;;;;;;;;;;5039999;27;91970;-61
2023/05/17 13:26:16;;;;;;;7.53;2.90;;;;;;;;;;5039692;28;91933;-61
2023/05/17 13:28:45;;;;;;;6.10;3.20;;;;;;;;;;5039549;27;92187;-62
2023/05/17 13:31:14;;;;;;;4.80;2.70;;;;;;;;;;5039225;27;93765;-62
2023/05/17 13:33:43;;;;;;;5.10;2.43;;;;;;;;;;5039552;27;92884;-61
2023/05/17 13:36:12;;;;;;;3.50;2.47;;;;;;;;;;5039870;27;92016;-61
2023/05/17 13:38:40;;;;;;;5.83;2.20;;;;;;;;;;5038218;28;92974;-61
2023/05/17 13:41:09;;;;;;;3.47;2.47;;;;;;;;;;5038707;27;92792;-61
2023/05/17 13:43:37;;;;;;;5.20;2.33;;;;;;;;;;5039469;27;92104;-61
2023/05/17 13:46:07;;;;;;;7.27;2.93;;;;;;;;;;5039037;27;92065;-61
2023/05/17 13:48:35;;;;;;;4.90;2.17;;;;;;;;;;5038206;27;93280;-61
2023/05/17 13:51:06;;;;;;;4.37;2.50;;;;;;;;;;5038045;27;93962;-61
2023/05/17 13:53:37;;;;;;;3.23;2.30;;;;;;;;;;5039063;28;91992;-61
2023/05/17 13:56:05;;;;;;;3.67;2.23;;;;;;;;;;5038863;27;92091;-61
2023/05/17 13:58:34;;;;;;;3.93;1.83;;;;;;;;;;5038358;27;95135;-61
2023/05/17 14:01:02;;;;;;;5.00;2.33;;;;;;;;;;5038598;27;95154;-61
2023/05/17 14:03:32;;;;;;;4.87;2.10;;;;;;;;;;5039077;27;92069;-61
2023/05/17 14:06:00;;;;;;;4.10;2.17;;;;;;;;;;5039143;27;92043;-61
2023/05/17 14:08:29;;;;;;;3.73;2.07;;;;;;;;;;5038850;27;94261;-61
2023/05/17 14:10:57;;;;;;;4.20;2.30;;;;;;;;;;5038664;27;92833;-61
2023/05/17 14:13:26;;;;;;;2.83;1.70;;;;;;;;;;5039062;27;92060;-61
2023/05/17 14:15:54;;;;;;;3.70;1.67;;;;;;;;;;5039686;27;91121;-61
2023/05/17 14:18:23;;;;;;;2.77;1.77;;;;;;;;;;5038542;27;94295;-61
2023/05/17 14:20:53;;;;;;;1.50;1.33;;;;;;;;;;5038869;27;93801;-61
2023/05/17 14:23:21;;;;;;;2.30;1.37;;;;;;;;;;5038701;27;92976;-61
2023/05/17 14:25:49;;;;;;;4.20;2.00;;;;;;;;;;5039327;27;92301;-61
2023/05/17 14:28:18;;;;;;;3.70;1.60;;;;;;;;;;5038997;27;94208;-61
2023/05/17 14:30:46;;;;;;;1.73;1.40;;;;;;;;;;5038252;27;92894;-61
2023/05/17 14:33:15;;;;;;;5.50;1.63;;;;;;;;;;5039047;27;92159;-61
2023/05/17 14:35:43;;;;;;;1.87;1.60;;;;;;;;;;5038299;27;91936;-61
2023/05/17 14:38:13;;;;;;;2.20;1.30;;;;;;;;;;5038320;28;94462;-61
2023/05/17 14:40:41;;;;;;;3.63;1.23;;;;;;;;;;5038742;27;94072;-61
2023/05/17 14:43:10;;;;;;;3.90;1.33;;;;;;;;;;5038746;27;92035;-61
2023/05/17 14:45:38;;;;;;;2.77;1.37;;;;;;;;;;5038625;27;92232;-61
2023/05/17 14:48:07;;;;;;;3.47;1.63;;;;;;;;;;5036892;27;95241;-61
2023/05/17 14:50:35;;;;;;;1.93;1.07;;;;;;;;;;5041095;27;94789;-60
2023/05/17 14:53:04;;;;;;;1.87;1.30;;;;;;;;;;5042060;27;91915;-61